Time;durP1;ratioP1;P1;durP2;ratioP2;P2;SDS_P1;SDS_P2;PMS_P1;PMS_P2;Temp;Humidity;BMP_temperature;BMP_pressure;BME280_temperature;BME280_humidity;BME280_pressure;Samples;Min_cycle;Max_cycle;Signal;HPM_P1;HPM_P2
2023/12/13 00:00:36;;;;;;;4.32;0.60;;;;;;;;;;5084855;28;20068;-82
2023/12/13 00:03:03;;;;;;;1.25;0.30;;;;;;;;;;5053343;28;20044;-82
2023/12/13 00:05:31;;;;;;;0.20;0.20;;;;;;;;;;5068447;28;20049;-83
2023/12/13 00:07:58;;;;;;;0.77;0.50;;;;;;;;;;5085743;28;20059;-83
2023/12/13 00:10:25;;;;;;;1.63;0.50;;;;;;;;;;5052100;28;20505;-82
2023/12/13 00:12:52;;;;;;;0.77;0.60;;;;;;;;;;5066026;28;20053;-83
2023/12/13 00:15:19;;;;;;;1.67;0.80;;;;;;;;;;5051713;28;20382;-82
2023/12/13 00:17:46;;;;;;;0.73;0.40;;;;;;;;;;5064618;28;20076;-82
2023/12/13 00:20:13;;;;;;;2.80;0.40;;;;;;;;;;5088138;28;20055;-81
2023/12/13 00:22:40;;;;;;;2.72;0.50;;;;;;;;;;5104416;28;20552;-82
2023/12/13 00:25:07;;;;;;;2.40;0.50;;;;;;;;;;5077771;28;20048;-83
2023/12/13 00:27:34;;;;;;;1.38;0.35;;;;;;;;;;5045630;28;20053;-80
2023/12/13 00:30:03;;;;;;;1.13;0.40;;;;;;;;;;5067565;28;20056;-81
2023/12/13 00:32:31;;;;;;;1.63;0.57;;;;;;;;;;5105184;28;20048;-83
2023/12/13 00:34:58;;;;;;;0.35;0.30;;;;;;;;;;5093814;28;20773;-82
2023/12/13 00:37:25;;;;;;;0.40;0.35;;;;;;;;;;5061297;28;20057;-83
2023/12/13 00:39:52;;;;;;;1.15;0.50;;;;;;;;;;5065299;28;20056;-82
2023/12/13 00:42:19;;;;;;;0.82;0.60;;;;;;;;;;5084282;28;20106;-81
2023/12/13 00:44:46;;;;;;;1.58;0.80;;;;;;;;;;5067150;28;20057;-82
2023/12/13 00:47:12;;;;;;;3.58;0.88;;;;;;;;;;5087221;28;20048;-81
2023/12/13 00:49:40;;;;;;;1.23;0.70;;;;;;;;;;5104315;28;20048;-82
2023/12/13 00:52:07;;;;;;;1.15;0.70;;;;;;;;;;5071354;28;20053;-80
2023/12/13 00:54:34;;;;;;;2.20;0.80;;;;;;;;;;5071749;28;20052;-81
2023/12/13 00:57:01;;;;;;;1.95;0.90;;;;;;;;;;5072770;28;20053;-81
2023/12/13 00:59:27;;;;;;;2.63;0.90;;;;;;;;;;5053732;28;20076;-80
2023/12/13 01:01:54;;;;;;;2.67;0.70;;;;;;;;;;5069595;28;20056;-79
2023/12/13 01:04:21;;;;;;;1.80;0.88;;;;;;;;;;5105957;28;20052;-78
2023/12/13 01:06:48;;;;;;;1.38;0.90;;;;;;;;;;5068498;28;20060;-79
2023/12/13 01:09:15;;;;;;;1.77;1.00;;;;;;;;;;5063052;28;20060;-80
2023/12/13 01:11:42;;;;;;;2.72;0.90;;;;;;;;;;5078948;28;20053;-81
2023/12/13 01:14:09;;;;;;;2.72;1.20;;;;;;;;;;5070273;28;20102;-80
2023/12/13 01:16:35;;;;;;;2.22;1.20;;;;;;;;;;5051959;28;20049;-80
2023/12/13 01:19:02;;;;;;;5.35;0.80;;;;;;;;;;5072848;28;20052;-80
2023/12/13 01:21:29;;;;;;;1.33;0.90;;;;;;;;;;5092826;28;20102;-80
2023/12/13 01:23:56;;;;;;;3.35;1.00;;;;;;;;;;5075802;28;20054;-82
2023/12/13 01:26:23;;;;;;;1.65;0.70;;;;;;;;;;5072857;28;20044;-80
2023/12/13 01:28:50;;;;;;;1.13;0.60;;;;;;;;;;5057098;28;20052;-78
2023/12/13 01:31:17;;;;;;;1.20;0.57;;;;;;;;;;5061503;28;20049;-80
2023/12/13 01:33:45;;;;;;;1.75;0.50;;;;;;;;;;5077433;28;20087;-79
2023/12/13 01:36:12;;;;;;;0.55;0.52;;;;;;;;;;5065427;28;20080;-81
2023/12/13 01:38:38;;;;;;;1.65;0.60;;;;;;;;;;5097622;28;20446;-81
2023/12/13 01:41:05;;;;;;;0.75;0.55;;;;;;;;;;5063240;28;20052;-80
2023/12/13 01:43:40;;;;;;;1.42;0.45;;;;;;;;;;5064139;28;20048;-80
2023/12/13 01:46:08;;;;;;;2.85;0.70;;;;;;;;;;5047975;28;20049;-80
2023/12/13 01:48:35;;;;;;;1.08;0.40;;;;;;;;;;5087687;28;20057;-80
2023/12/13 01:51:02;;;;;;;0.60;0.40;;;;;;;;;;5076976;28;20052;-80
2023/12/13 01:53:29;;;;;;;3.22;0.70;;;;;;;;;;5058560;28;20063;-80
2023/12/13 01:55:56;;;;;;;2.28;0.40;;;;;;;;;;5070748;28;20069;-80
2023/12/13 01:58:23;;;;;;;1.75;0.30;;;;;;;;;;5072425;28;20053;-80
2023/12/13 02:00:50;;;;;;;1.58;0.60;;;;;;;;;;5084778;28;20212;-78
2023/12/13 02:03:17;;;;;;;2.50;0.20;;;;;;;;;;5055489;28;20466;-79
2023/12/13 02:05:44;;;;;;;1.40;0.40;;;;;;;;;;5050784;28;20077;-80
2023/12/13 02:08:11;;;;;;;2.40;0.50;;;;;;;;;;5073301;28;20060;-79
2023/12/13 02:10:38;;;;;;;1.50;0.60;;;;;;;;;;5052771;28;20094;-82
2023/12/13 02:13:05;;;;;;;0.47;0.30;;;;;;;;;;5053577;28;20045;-82
2023/12/13 02:15:35;;;;;;;3.60;0.70;;;;;;;;;;5067350;28;20049;-81
2023/12/13 02:18:02;;;;;;;2.05;0.70;;;;;;;;;;5070691;28;20091;-80
2023/12/13 02:20:29;;;;;;;1.63;0.40;;;;;;;;;;5052893;28;20053;-80
2023/12/13 02:22:56;;;;;;;1.30;0.50;;;;;;;;;;5066640;28;20048;-81
2023/12/13 02:25:34;;;;;;;4.22;0.60;;;;;;;;;;5104874;28;20144;-81
2023/12/13 02:28:01;;;;;;;1.20;0.30;;;;;;;;;;5054822;28;20053;-80
2023/12/13 02:30:29;;;;;;;1.85;0.95;;;;;;;;;;5054278;28;20110;-80
2023/12/13 02:32:55;;;;;;;4.60;0.70;;;;;;;;;;5071331;28;20542;-80
2023/12/13 02:35:23;;;;;;;1.75;0.50;;;;;;;;;;5070417;28;20064;-79
2023/12/13 02:37:50;;;;;;;3.20;0.63;;;;;;;;;;5069545;28;20060;-80
2023/12/13 02:40:20;;;;;;;1.20;0.43;;;;;;;;;;5077519;28;20053;-82
2023/12/13 02:42:47;;;;;;;1.33;0.55;;;;;;;;;;5052981;28;20071;-82
2023/12/13 02:45:14;;;;;;;3.67;0.93;;;;;;;;;;5056197;28;20702;-79
2023/12/13 02:47:43;;;;;;;2.55;0.57;;;;;;;;;;5070514;28;20080;-80
2023/12/13 02:50:11;;;;;;;1.55;0.68;;;;;;;;;;5087963;28;20060;-79
2023/12/13 02:52:39;;;;;;;3.00;0.50;;;;;;;;;;5053223;28;20053;-80
2023/12/13 02:55:07;;;;;;;1.70;0.40;;;;;;;;;;5053248;28;20128;-81
2023/12/13 02:57:34;;;;;;;2.28;0.40;;;;;;;;;;5069556;28;20052;-81
2023/12/13 03:00:01;;;;;;;0.50;0.50;;;;;;;;;;5071570;28;20065;-79
2023/12/13 03:02:29;;;;;;;3.33;0.70;;;;;;;;;;5086945;28;20049;-79
2023/12/13 03:04:55;;;;;;;3.50;1.15;;;;;;;;;;5071518;28;20049;-80
2023/12/13 03:07:22;;;;;;;6.13;1.98;;;;;;;;;;5107294;28;20059;-79
2023/12/13 03:09:49;;;;;;;11.57;3.78;;;;;;;;;;5053761;28;20076;-79
2023/12/13 03:12:16;;;;;;;6.55;2.03;;;;;;;;;;5044906;28;20053;-80
2023/12/13 03:14:43;;;;;;;6.03;0.90;;;;;;;;;;5068756;28;20049;-80
2023/12/13 03:17:09;;;;;;;1.13;0.70;;;;;;;;;;5056746;28;20065;-79
2023/12/13 03:19:36;;;;;;;3.88;1.50;;;;;;;;;;5052817;28;20080;-79
2023/12/13 03:22:03;;;;;;;1.75;0.60;;;;;;;;;;5071395;28;20049;-79
2023/12/13 03:24:30;;;;;;;3.70;0.73;;;;;;;;;;5092991;28;20490;-79
2023/12/13 03:26:57;;;;;;;0.40;0.40;;;;;;;;;;5075787;28;20087;-78
2023/12/13 03:29:23;;;;;;;5.30;0.52;;;;;;;;;;5096051;28;20048;-79
2023/12/13 03:31:50;;;;;;;2.50;0.50;;;;;;;;;;5077718;28;20052;-78
2023/12/13 03:34:17;;;;;;;1.17;0.60;;;;;;;;;;5081892;28;20048;-80
2023/12/13 03:36:44;;;;;;;1.92;0.57;;;;;;;;;;5066515;28;20139;-79
2023/12/13 03:39:11;;;;;;;1.50;0.50;;;;;;;;;;5100217;28;20052;-80
2023/12/13 03:41:38;;;;;;;2.20;0.50;;;;;;;;;;5097168;28;20041;-78
2023/12/13 03:44:04;;;;;;;1.85;0.65;;;;;;;;;;5097430;28;20058;-80
2023/12/13 03:46:31;;;;;;;0.68;0.50;;;;;;;;;;5072180;28;20057;-81
2023/12/13 03:48:58;;;;;;;3.03;0.68;;;;;;;;;;5086861;28;20057;-81
2023/12/13 03:51:25;;;;;;;2.00;0.55;;;;;;;;;;5073253;28;20080;-81
2023/12/13 03:53:51;;;;;;;1.92;1.10;;;;;;;;;;5070804;28;20060;-78
2023/12/13 03:56:18;;;;;;;3.22;0.63;;;;;;;;;;5091293;28;20053;-80
2023/12/13 03:58:45;;;;;;;0.40;0.38;;;;;;;;;;5087653;28;20053;-79
2023/12/13 04:01:12;;;;;;;2.70;0.77;;;;;;;;;;5071848;28;20112;-80
2023/12/13 04:03:39;;;;;;;3.38;0.55;;;;;;;;;;5070535;28;20059;-79
2023/12/13 04:06:06;;;;;;;2.58;0.80;;;;;;;;;;5072926;28;20060;-81
2023/12/13 04:08:33;;;;;;;1.52;0.52;;;;;;;;;;5067933;28;20053;-82
2023/12/13 04:10:59;;;;;;;1.50;0.70;;;;;;;;;;5036441;28;20472;-81
2023/12/13 04:13:26;;;;;;;1.65;0.55;;;;;;;;;;5078449;28;20041;-82
2023/12/13 04:15:53;;;;;;;0.80;0.80;;;;;;;;;;5038342;28;20061;-80
2023/12/13 04:18:20;;;;;;;2.42;0.77;;;;;;;;;;5069925;28;20057;-81
2023/12/13 04:20:47;;;;;;;2.47;0.70;;;;;;;;;;5050832;28;20056;-82
2023/12/13 04:23:14;;;;;;;1.98;0.60;;;;;;;;;;5069508;28;20049;-80
2023/12/13 04:25:40;;;;;;;1.00;0.60;;;;;;;;;;5046979;28;20056;-83
2023/12/13 04:28:08;;;;;;;1.92;0.68;;;;;;;;;;5067629;28;20085;-80
2023/12/13 04:30:34;;;;;;;2.42;0.80;;;;;;;;;;5098370;28;20067;-80
2023/12/13 04:33:01;;;;;;;2.25;0.88;;;;;;;;;;5066857;28;20133;-81
2023/12/13 04:35:28;;;;;;;1.88;0.73;;;;;;;;;;5066221;28;20075;-80
2023/12/13 04:37:55;;;;;;;2.13;1.00;;;;;;;;;;5069439;28;20078;-80
2023/12/13 04:40:22;;;;;;;2.25;0.85;;;;;;;;;;5101229;28;20059;-81
2023/12/13 04:42:49;;;;;;;1.05;0.80;;;;;;;;;;5046201;28;20072;-80
2023/12/13 04:45:16;;;;;;;1.92;0.98;;;;;;;;;;5052326;28;20067;-82
2023/12/13 04:47:43;;;;;;;7.88;2.33;;;;;;;;;;5053375;28;20503;-83
2023/12/13 04:50:10;;;;;;;1.48;0.90;;;;;;;;;;5058791;28;20057;-84
2023/12/13 04:52:37;;;;;;;3.20;1.10;;;;;;;;;;5040690;28;20053;-83
2023/12/13 04:55:04;;;;;;;3.50;1.02;;;;;;;;;;5040694;28;20495;-82
2023/12/13 04:57:31;;;;;;;5.10;3.30;;;;;;;;;;5060077;28;20122;-82
2023/12/13 04:59:59;;;;;;;65.88;39.25;;;;;;;;;;5058348;28;20131;-85
2023/12/13 05:02:26;;;;;;;108.25;55.20;;;;;;;;;;5087907;28;20055;-80
2023/12/13 05:04:53;;;;;;;74.63;38.58;;;;;;;;;;5056414;28;20122;-81
2023/12/13 05:07:20;;;;;;;20.20;10.27;;;;;;;;;;5072411;28;20061;-81
2023/12/13 05:09:47;;;;;;;5.90;2.05;;;;;;;;;;5054054;28;20052;-82
2023/12/13 05:12:14;;;;;;;6.55;1.73;;;;;;;;;;5065536;28;20048;-82
2023/12/13 05:14:41;;;;;;;3.88;1.88;;;;;;;;;;5078890;28;20052;-82
2023/12/13 05:17:08;;;;;;;3.65;1.60;;;;;;;;;;5070075;28;20076;-82
2023/12/13 05:19:34;;;;;;;3.75;1.33;;;;;;;;;;5076680;28;20059;-82
2023/12/13 05:22:02;;;;;;;1.73;1.17;;;;;;;;;;5047856;28;20052;-81
2023/12/13 05:24:30;;;;;;;4.22;1.20;;;;;;;;;;5080175;28;20044;-80
2023/12/13 05:26:59;;;;;;;2.33;0.93;;;;;;;;;;5080757;28;20061;-79
2023/12/13 05:29:26;;;;;;;1.63;1.25;;;;;;;;;;5080207;28;20106;-81
2023/12/13 05:31:54;;;;;;;2.50;0.80;;;;;;;;;;5080352;28;20049;-79
2023/12/13 05:34:23;;;;;;;3.75;0.70;;;;;;;;;;5077202;28;20052;-79
2023/12/13 05:36:50;;;;;;;4.00;1.27;;;;;;;;;;5098076;28;20056;-81
2023/12/13 05:39:17;;;;;;;2.25;0.90;;;;;;;;;;5045966;28;20086;-81
2023/12/13 05:41:43;;;;;;;1.52;1.02;;;;;;;;;;5077853;28;20045;-82
2023/12/13 05:44:11;;;;;;;1.75;1.00;;;;;;;;;;5058486;28;20059;-83
2023/12/13 05:46:41;;;;;;;2.80;0.85;;;;;;;;;;5066532;28;20128;-82
2023/12/13 05:49:08;;;;;;;1.95;0.90;;;;;;;;;;5101687;28;20044;-81
2023/12/13 05:51:38;;;;;;;1.42;1.00;;;;;;;;;;5054198;28;20048;-81
2023/12/13 05:54:05;;;;;;;1.52;0.93;;;;;;;;;;5083161;28;20052;-79
2023/12/13 05:56:32;;;;;;;2.42;0.80;;;;;;;;;;5057535;28;20044;-78
2023/12/13 05:59:00;;;;;;;1.58;0.75;;;;;;;;;;5073279;28;20078;-81
2023/12/13 06:01:27;;;;;;;1.95;0.68;;;;;;;;;;5078405;28;20471;-79
2023/12/13 06:03:54;;;;;;;2.15;0.60;;;;;;;;;;5066817;28;20068;-80
2023/12/13 06:06:21;;;;;;;1.27;0.80;;;;;;;;;;5066145;28;20083;-81
2023/12/13 06:08:48;;;;;;;1.25;0.88;;;;;;;;;;5058281;28;20048;-81
2023/12/13 06:11:14;;;;;;;3.78;0.90;;;;;;;;;;5084273;28;20426;-81
2023/12/13 06:13:41;;;;;;;2.05;1.02;;;;;;;;;;5080428;28;20075;-80
2023/12/13 06:16:12;;;;;;;2.03;0.90;;;;;;;;;;5083179;28;20063;-82
2023/12/13 06:18:39;;;;;;;4.57;0.90;;;;;;;;;;5049571;28;20049;-81
2023/12/13 06:21:07;;;;;;;4.63;1.30;;;;;;;;;;5072021;28;20064;-82
2023/12/13 06:23:34;;;;;;;4.28;1.83;;;;;;;;;;5069520;28;20052;-81
2023/12/13 06:26:02;;;;;;;3.20;1.70;;;;;;;;;;5071669;28;20082;-82
2023/12/13 06:28:29;;;;;;;1.98;1.77;;;;;;;;;;5053870;28;20057;-82
2023/12/13 06:30:56;;;;;;;2.15;1.30;;;;;;;;;;5063777;28;20458;-82
2023/12/13 06:33:23;;;;;;;4.30;1.20;;;;;;;;;;5079182;28;20136;-82
2023/12/13 06:35:50;;;;;;;2.42;1.38;;;;;;;;;;5077568;28;20076;-79
2023/12/13 06:38:17;;;;;;;5.47;1.42;;;;;;;;;;5082176;28;20078;-83
2023/12/13 06:40:44;;;;;;;3.95;1.00;;;;;;;;;;5052754;28;20623;-81
2023/12/13 06:43:11;;;;;;;3.58;1.25;;;;;;;;;;5094984;28;20729;-81
2023/12/13 06:45:38;;;;;;;3.78;1.63;;;;;;;;;;5110388;28;20066;-83
2023/12/13 06:48:06;;;;;;;3.92;1.23;;;;;;;;;;5086393;28;20048;-85
2023/12/13 06:50:33;;;;;;;3.83;1.67;;;;;;;;;;5053464;28;20056;-86
2023/12/13 06:53:00;;;;;;;2.88;2.25;;;;;;;;;;5076097;28;20056;-85
2023/12/13 06:55:27;;;;;;;2.22;1.40;;;;;;;;;;5060696;28;20104;-84
2023/12/13 06:57:54;;;;;;;3.38;1.48;;;;;;;;;;5073850;28;20099;-84
2023/12/13 07:00:21;;;;;;;5.45;1.23;;;;;;;;;;5038696;28;20048;-85
2023/12/13 07:02:49;;;;;;;1.95;1.30;;;;;;;;;;5074917;28;20056;-81
2023/12/13 07:05:16;;;;;;;3.97;1.20;;;;;;;;;;5077798;28;20052;-81
2023/12/13 07:07:44;;;;;;;2.38;1.55;;;;;;;;;;5063984;28;20411;-86
2023/12/13 07:10:10;;;;;;;4.35;1.60;;;;;;;;;;5081184;28;20549;-82
2023/12/13 07:12:37;;;;;;;3.45;1.65;;;;;;;;;;5086569;28;20054;-84
2023/12/13 07:15:06;;;;;;;2.00;1.38;;;;;;;;;;5085133;28;20076;-81
2023/12/13 07:17:33;;;;;;;4.13;1.35;;;;;;;;;;5064743;28;20079;-82
2023/12/13 07:20:00;;;;;;;1.83;1.15;;;;;;;;;;5065551;28;20094;-82
2023/12/13 07:22:27;;;;;;;3.45;1.08;;;;;;;;;;5078784;28;20048;-82
2023/12/13 07:24:54;;;;;;;3.17;1.67;;;;;;;;;;5038396;28;20048;-80
2023/12/13 07:27:21;;;;;;;2.75;1.48;;;;;;;;;;5087597;28;20056;-83
2023/12/13 07:29:48;;;;;;;3.85;1.63;;;;;;;;;;5068405;28;20471;-88
2023/12/13 07:32:14;;;;;;;2.42;0.75;;;;;;;;;;5066102;28;20053;-88
2023/12/13 07:34:44;;;;;;;2.15;0.80;;;;;;;;;;5050851;28;20414;-88
2023/12/13 07:37:11;;;;;;;4.55;2.05;;;;;;;;;;5064308;28;20056;-88
2023/12/13 07:39:39;;;;;;;3.65;1.00;;;;;;;;;;5051070;28;20507;-88
2023/12/13 07:42:09;;;;;;;1.75;1.27;;;;;;;;;;5050117;28;20254;-88
2023/12/13 07:44:37;;;;;;;4.07;2.38;;;;;;;;;;5052942;28;20106;-88
2023/12/13 07:47:09;;;;;;;3.78;2.20;;;;;;;;;;5051087;28;20060;-88
2023/12/13 07:49:40;;;;;;;2.65;1.15;;;;;;;;;;5037476;28;20053;-88
2023/12/13 07:52:09;;;;;;;2.38;1.10;;;;;;;;;;5035579;28;20114;-80
2023/12/13 07:54:36;;;;;;;2.40;0.90;;;;;;;;;;5044368;28;20075;-83
2023/12/13 07:57:03;;;;;;;4.50;1.02;;;;;;;;;;5057818;28;20060;-82
2023/12/13 07:59:30;;;;;;;5.18;0.80;;;;;;;;;;5078240;28;20053;-82
2023/12/13 08:01:57;;;;;;;0.93;0.60;;;;;;;;;;5051892;28;20056;-88
2023/12/13 08:04:26;;;;;;;4.00;1.13;;;;;;;;;;5056067;28;20106;-82
2023/12/13 08:06:53;;;;;;;1.67;0.90;;;;;;;;;;5079451;28;20093;-82
2023/12/13 08:09:20;;;;;;;2.92;0.95;;;;;;;;;;5069697;28;20056;-82
2023/12/13 08:11:47;;;;;;;2.05;0.90;;;;;;;;;;5058621;28;20049;-83
2023/12/13 08:14:14;;;;;;;2.58;0.93;;;;;;;;;;5068588;28;20048;-84
2023/12/13 08:16:42;;;;;;;3.47;1.08;;;;;;;;;;5067727;28;20056;-82
2023/12/13 08:19:09;;;;;;;2.15;0.68;;;;;;;;;;5057430;28;20052;-83
2023/12/13 08:21:40;;;;;;;1.02;0.73;;;;;;;;;;5069289;28;20483;-84
2023/12/13 08:24:10;;;;;;;1.95;1.15;;;;;;;;;;5080359;28;20056;-84
2023/12/13 08:26:37;;;;;;;6.05;1.33;;;;;;;;;;5059844;28;20079;-83
2023/12/13 08:29:04;;;;;;;3.70;1.02;;;;;;;;;;5054973;28;20147;-81
2023/12/13 08:31:33;;;;;;;3.40;1.00;;;;;;;;;;5071826;28;20103;-82
2023/12/13 08:34:01;;;;;;;1.90;0.88;;;;;;;;;;5048111;28;20503;-85
2023/12/13 08:36:28;;;;;;;3.42;0.80;;;;;;;;;;5092589;28;20132;-85
2023/12/13 08:38:55;;;;;;;2.67;1.13;;;;;;;;;;5049378;28;20064;-83
2023/12/13 08:41:22;;;;;;;2.78;1.08;;;;;;;;;;5069509;28;20504;-83
2023/12/13 08:43:49;;;;;;;1.05;0.85;;;;;;;;;;5054965;28;20056;-83
2023/12/13 08:46:16;;;;;;;1.98;0.85;;;;;;;;;;5056150;28;20045;-83
2023/12/13 08:48:44;;;;;;;5.30;1.38;;;;;;;;;;5053341;28;20055;-83
2023/12/13 08:51:11;;;;;;;2.20;1.33;;;;;;;;;;5072757;28;20052;-83
2023/12/13 08:53:38;;;;;;;2.70;1.20;;;;;;;;;;5042946;28;20052;-83
2023/12/13 08:56:06;;;;;;;2.35;1.33;;;;;;;;;;5078358;28;20076;-83
2023/12/13 08:58:33;;;;;;;1.92;1.10;;;;;;;;;;5042687;28;20560;-82
2023/12/13 09:01:00;;;;;;;2.28;1.63;;;;;;;;;;5076810;28;20048;-82
2023/12/13 09:03:27;;;;;;;7.68;2.08;;;;;;;;;;5043867;28;20059;-83
2023/12/13 09:05:54;;;;;;;4.40;1.27;;;;;;;;;;5067759;28;20085;-83
2023/12/13 09:08:21;;;;;;;4.65;1.58;;;;;;;;;;5074625;28;20053;-83
2023/12/13 09:10:48;;;;;;;2.40;1.27;;;;;;;;;;5073489;28;20060;-83
2023/12/13 09:13:15;;;;;;;1.15;0.82;;;;;;;;;;5078037;28;20057;-82
2023/12/13 09:15:45;;;;;;;2.53;1.17;;;;;;;;;;5064193;28;20052;-83
2023/12/13 09:18:12;;;;;;;1.60;1.00;;;;;;;;;;5066274;28;20063;-84
2023/12/13 09:20:40;;;;;;;4.47;1.17;;;;;;;;;;5071764;28;20052;-83
2023/12/13 09:23:09;;;;;;;4.32;1.05;;;;;;;;;;5046045;28;20057;-85
2023/12/13 09:25:36;;;;;;;2.55;1.35;;;;;;;;;;5049204;28;20053;-84
2023/12/13 09:28:03;;;;;;;5.28;1.45;;;;;;;;;;5067390;28;20064;-82
2023/12/13 09:30:30;;;;;;;3.83;1.17;;;;;;;;;;5040804;28;20498;-83
2023/12/13 09:32:57;;;;;;;4.18;1.20;;;;;;;;;;5090539;28;20063;-81
2023/12/13 09:35:24;;;;;;;6.80;1.42;;;;;;;;;;5068070;28;20048;-82
2023/12/13 09:37:51;;;;;;;5.35;1.23;;;;;;;;;;5061947;28;20113;-89
2023/12/13 09:40:19;;;;;;;1.58;0.88;;;;;;;;;;5030794;28;20055;-86
2023/12/13 09:42:46;;;;;;;4.78;1.02;;;;;;;;;;5066182;28;20485;-87
2023/12/13 09:45:20;;;;;;;2.20;0.93;;;;;;;;;;5061956;28;20056;-87
2023/12/13 09:47:52;;;;;;;3.40;1.58;;;;;;;;;;5034645;28;20049;-88
2023/12/13 09:50:21;;;;;;;5.35;1.42;;;;;;;;;;5060140;28;20060;-88
2023/12/13 09:52:48;;;;;;;9.48;4.78;;;;;;;;;;5033637;28;20056;-88
2023/12/13 09:55:15;;;;;;;5.82;2.22;;;;;;;;;;5052820;28;20056;-87
2023/12/13 09:57:43;;;;;;;1.65;1.20;;;;;;;;;;5046946;28;20495;-87
2023/12/13 10:00:13;;;;;;;3.72;1.38;;;;;;;;;;5076399;28;20518;-87
2023/12/13 10:02:40;;;;;;;6.05;2.17;;;;;;;;;;5065100;28;20061;-87
2023/12/13 10:05:08;;;;;;;5.32;1.80;;;;;;;;;;5043103;28;20052;-86
2023/12/13 10:07:36;;;;;;;7.10;2.75;;;;;;;;;;5051187;28;20048;-86
2023/12/13 10:10:05;;;;;;;5.72;2.03;;;;;;;;;;5061841;28;20056;-87
2023/12/13 10:12:32;;;;;;;3.80;1.95;;;;;;;;;;5053335;28;20088;-88
2023/12/13 10:15:10;;;;;;;4.03;1.50;;;;;;;;;;5044271;28;20045;-87
2023/12/13 10:17:39;;;;;;;6.28;1.80;;;;;;;;;;5074448;28;20045;-87
2023/12/13 10:20:08;;;;;;;7.78;1.90;;;;;;;;;;5053850;28;20118;-87
2023/12/13 10:22:36;;;;;;;6.15;1.83;;;;;;;;;;5051338;28;20121;-86
2023/12/13 10:25:04;;;;;;;4.32;1.60;;;;;;;;;;5040709;28;20127;-87
2023/12/13 10:27:31;;;;;;;7.63;3.25;;;;;;;;;;5062352;28;20098;-87
2023/12/13 10:29:59;;;;;;;16.38;8.02;;;;;;;;;;5064808;28;20599;-88
2023/12/13 10:32:26;;;;;;;18.65;10.57;;;;;;;;;;5065781;28;20052;-87
2023/12/13 10:34:53;;;;;;;23.67;11.85;;;;;;;;;;5037596;28;20048;-87
2023/12/13 10:37:24;;;;;;;12.52;5.75;;;;;;;;;;5031466;28;20076;-87
2023/12/13 10:39:53;;;;;;;7.05;2.78;;;;;;;;;;5045860;28;20056;-86
2023/12/13 10:42:20;;;;;;;4.57;1.50;;;;;;;;;;5048113;28;20129;-87
2023/12/13 10:44:47;;;;;;;9.90;2.10;;;;;;;;;;5034028;28;20075;-87
2023/12/13 10:47:14;;;;;;;7.03;2.03;;;;;;;;;;5049761;28;20498;-85
2023/12/13 10:49:43;;;;;;;5.53;1.75;;;;;;;;;;5037610;28;20084;-85
2023/12/13 10:52:10;;;;;;;3.97;1.88;;;;;;;;;;5043041;28;20066;-87
2023/12/13 10:54:38;;;;;;;4.15;1.48;;;;;;;;;;5083238;28;20087;-87
2023/12/13 10:57:05;;;;;;;5.47;1.40;;;;;;;;;;5050328;28;20139;-87
2023/12/13 10:59:33;;;;;;;3.10;1.33;;;;;;;;;;5066518;28;20075;-87
2023/12/13 11:02:00;;;;;;;2.45;1.40;;;;;;;;;;5065224;28;20036;-86
2023/12/13 11:04:27;;;;;;;3.45;1.33;;;;;;;;;;5078318;28;20102;-83
2023/12/13 11:06:55;;;;;;;3.50;1.13;;;;;;;;;;5058208;28;20041;-85
2023/12/13 11:09:24;;;;;;;6.15;1.95;;;;;;;;;;5080964;28;20094;-84
2023/12/13 11:11:51;;;;;;;6.82;1.80;;;;;;;;;;5086106;28;20082;-83
2023/12/13 11:14:20;;;;;;;4.30;1.63;;;;;;;;;;5063153;28;20071;-83
2023/12/13 11:16:48;;;;;;;2.40;1.50;;;;;;;;;;5047571;28;20102;-84
2023/12/13 11:19:19;;;;;;;2.17;1.13;;;;;;;;;;5055313;28;20087;-84
2023/12/13 11:21:47;;;;;;;2.75;1.45;;;;;;;;;;5042725;28;20159;-84
2023/12/13 11:24:16;;;;;;;3.17;1.02;;;;;;;;;;5054498;28;20059;-84
2023/12/13 11:26:48;;;;;;;1.90;0.80;;;;;;;;;;5053048;28;20071;-79
2023/12/13 11:29:18;;;;;;;3.42;1.15;;;;;;;;;;5077732;28;20049;-82
2023/12/13 11:31:51;;;;;;;2.95;1.80;;;;;;;;;;5072353;28;20079;-83
2023/12/13 11:34:32;;;;;;;3.67;1.10;;;;;;;;;;5047661;28;20048;-82
2023/12/13 11:37:00;;;;;;;2.53;1.15;;;;;;;;;;5081634;28;20446;-83
2023/12/13 11:39:32;;;;;;;3.03;1.42;;;;;;;;;;5051733;28;20055;-83
2023/12/13 11:42:02;;;;;;;4.07;1.25;;;;;;;;;;5053477;28;20058;-83
2023/12/13 11:44:29;;;;;;;1.77;0.82;;;;;;;;;;5038021;28;20084;-83
2023/12/13 11:46:57;;;;;;;3.13;1.08;;;;;;;;;;5058416;28;20111;-83
2023/12/13 11:49:25;;;;;;;4.90;1.55;;;;;;;;;;5058319;28;20676;-83
2023/12/13 11:51:53;;;;;;;2.53;1.55;;;;;;;;;;5060131;28;20099;-82
2023/12/13 11:54:20;;;;;;;3.35;1.23;;;;;;;;;;5036619;28;20075;-81
2023/12/13 11:56:47;;;;;;;2.05;0.80;;;;;;;;;;5041617;28;20056;-85
2023/12/13 11:59:14;;;;;;;2.20;0.90;;;;;;;;;;5037250;28;20559;-82
2023/12/13 12:01:41;;;;;;;3.05;0.98;;;;;;;;;;5054967;28;20525;-83
2023/12/13 12:04:08;;;;;;;1.63;1.10;;;;;;;;;;5049324;28;20555;-82
2023/12/13 12:06:35;;;;;;;2.17;1.33;;;;;;;;;;5063135;28;20477;-82
2023/12/13 12:09:03;;;;;;;3.05;0.73;;;;;;;;;;5045394;28;20056;-82
2023/12/13 12:11:32;;;;;;;4.57;1.13;;;;;;;;;;5044516;28;20498;-83
2023/12/13 12:14:00;;;;;;;3.40;1.58;;;;;;;;;;5037973;28;20090;-82
2023/12/13 12:16:28;;;;;;;2.17;1.10;;;;;;;;;;5033239;28;20106;-82
2023/12/13 12:18:55;;;;;;;3.22;1.20;;;;;;;;;;5047205;28;20072;-81
2023/12/13 12:21:22;;;;;;;2.35;1.30;;;;;;;;;;5057683;28;20112;-82
2023/12/13 12:23:49;;;;;;;3.13;0.65;;;;;;;;;;5055539;28;20161;-82
2023/12/13 12:26:16;;;;;;;2.53;0.88;;;;;;;;;;5065269;28;20045;-82
2023/12/13 12:28:43;;;;;;;1.42;0.80;;;;;;;;;;5065764;28;20053;-81
2023/12/13 12:31:10;;;;;;;1.52;0.88;;;;;;;;;;5069340;28;20529;-82
2023/12/13 12:33:43;;;;;;;1.17;0.95;;;;;;;;;;5058949;28;20040;-82
2023/12/13 12:36:10;;;;;;;3.80;1.10;;;;;;;;;;5048912;28;20052;-82
2023/12/13 12:38:37;;;;;;;2.83;0.95;;;;;;;;;;5053678;28;20044;-82
2023/12/13 12:41:04;;;;;;;2.28;0.70;;;;;;;;;;5058639;28;20825;-82
2023/12/13 12:43:31;;;;;;;1.30;0.70;;;;;;;;;;5076895;28;20086;-82
2023/12/13 12:45:58;;;;;;;1.08;0.55;;;;;;;;;;5050740;28;20044;-81
2023/12/13 12:48:24;;;;;;;1.15;0.80;;;;;;;;;;5036374;28;20057;-82
2023/12/13 12:50:52;;;;;;;1.17;0.57;;;;;;;;;;5060134;28;20872;-83
2023/12/13 12:53:18;;;;;;;1.42;0.70;;;;;;;;;;5089161;28;20048;-83
2023/12/13 12:55:45;;;;;;;1.75;0.52;;;;;;;;;;5044502;28;20048;-80
2023/12/13 12:58:12;;;;;;;2.03;0.55;;;;;;;;;;5043432;28;20059;-81
2023/12/13 13:00:39;;;;;;;1.77;0.60;;;;;;;;;;5069140;28;20048;-82
2023/12/13 13:03:06;;;;;;;2.05;0.50;;;;;;;;;;5057596;28;20053;-82
2023/12/13 13:05:34;;;;;;;0.55;0.40;;;;;;;;;;5056441;28;20066;-82
2023/12/13 13:08:01;;;;;;;1.15;0.47;;;;;;;;;;5078323;28;20185;-82
2023/12/13 13:10:28;;;;;;;3.35;0.90;;;;;;;;;;5080276;28;20052;-81
2023/12/13 13:12:55;;;;;;;2.33;0.95;;;;;;;;;;5065473;28;20053;-82
2023/12/13 13:15:23;;;;;;;4.40;0.90;;;;;;;;;;5067352;28;20056;-82
2023/12/13 13:17:50;;;;;;;1.35;0.70;;;;;;;;;;5067948;28;20060;-81
2023/12/13 13:20:18;;;;;;;2.88;1.00;;;;;;;;;;5056480;28;20052;-82
2023/12/13 13:22:46;;;;;;;1.38;0.80;;;;;;;;;;5053699;28;20506;-82
2023/12/13 13:25:15;;;;;;;3.70;0.70;;;;;;;;;;5054036;28;20053;-83
2023/12/13 13:27:44;;;;;;;2.25;1.02;;;;;;;;;;5059110;28;20068;-82
2023/12/13 13:30:13;;;;;;;2.85;0.70;;;;;;;;;;5051243;28;21145;-83
2023/12/13 13:32:41;;;;;;;2.45;1.00;;;;;;;;;;5050504;28;20102;-83
2023/12/13 13:35:08;;;;;;;1.15;0.70;;;;;;;;;;5055678;28;20067;-81
2023/12/13 13:37:36;;;;;;;1.30;0.60;;;;;;;;;;5036865;28;20053;-83
2023/12/13 13:40:06;;;;;;;1.95;0.63;;;;;;;;;;5059211;28;20231;-83
2023/12/13 13:42:33;;;;;;;5.95;1.52;;;;;;;;;;5055680;28;20128;-84
2023/12/13 13:44:59;;;;;;;3.35;1.80;;;;;;;;;;5044033;28;20083;-85
2023/12/13 13:47:26;;;;;;;2.85;1.25;;;;;;;;;;5072387;28;20045;-84
2023/12/13 13:49:53;;;;;;;4.25;0.70;;;;;;;;;;5074857;28;20056;-85
2023/12/13 13:52:21;;;;;;;0.73;0.47;;;;;;;;;;5040842;28;20053;-86
2023/12/13 13:54:48;;;;;;;3.38;1.05;;;;;;;;;;5047197;28;20148;-84
2023/12/13 13:57:15;;;;;;;0.95;0.38;;;;;;;;;;5069030;28;20053;-84
2023/12/13 13:59:41;;;;;;;0.90;0.40;;;;;;;;;;5063383;28;20102;-84
2023/12/13 14:02:09;;;;;;;4.38;1.02;;;;;;;;;;5069128;28;20094;-83
2023/12/13 14:04:35;;;;;;;1.20;0.55;;;;;;;;;;5063296;28;20063;-84
2023/12/13 14:07:05;;;;;;;1.20;0.40;;;;;;;;;;5039645;28;20111;-83
2023/12/13 14:09:33;;;;;;;0.50;0.25;;;;;;;;;;5067595;28;20075;-84
2023/12/13 14:12:00;;;;;;;1.08;0.98;;;;;;;;;;5062578;28;20575;-84
2023/12/13 14:14:26;;;;;;;3.63;1.20;;;;;;;;;;5040907;28;20045;-83
2023/12/13 14:16:53;;;;;;;2.92;1.70;;;;;;;;;;5083579;28;20083;-86
2023/12/13 14:19:20;;;;;;;3.47;2.53;;;;;;;;;;5063581;28;20058;-86
2023/12/13 14:21:47;;;;;;;3.17;2.47;;;;;;;;;;5050324;28;20106;-86
2023/12/13 14:24:14;;;;;;;3.25;2.65;;;;;;;;;;5056546;28;20049;-86
2023/12/13 14:26:41;;;;;;;4.22;2.42;;;;;;;;;;5048547;28;20052;-86
2023/12/13 14:29:08;;;;;;;1.65;1.27;;;;;;;;;;5076573;28;20087;-86
2023/12/13 14:31:35;;;;;;;4.55;2.38;;;;;;;;;;5063225;28;20063;-86
2023/12/13 14:34:01;;;;;;;5.22;1.83;;;;;;;;;;5063679;28;20430;-86
2023/12/13 14:36:28;;;;;;;5.05;1.92;;;;;;;;;;5056067;28;20052;-85
2023/12/13 14:38:55;;;;;;;4.60;1.50;;;;;;;;;;5065546;28;20583;-86
2023/12/13 14:41:24;;;;;;;2.20;1.10;;;;;;;;;;5041071;28;20425;-86
2023/12/13 14:43:51;;;;;;;3.78;1.27;;;;;;;;;;5068224;28;20510;-85